Time;durP1;ratioP1;P1;durP2;ratioP2;P2;SDS_P1;SDS_P2;PMS_P1;PMS_P2;Temp;Humidity;BMP_temperature;BMP_pressure;BME280_temperature;BME280_humidity;BME280_pressure;Samples;Min_cycle;Max_cycle;Signal;HPM_P1;HPM_P2
2022/07/04 00:02:04;;;;;;;3.70;1.65;;;26.80;52.30;;;;;;4963321;28;20205;-72
2022/07/04 00:04:32;;;;;;;3.17;1.35;;;26.80;52.50;;;;;;4960374;28;20198;-72
2022/07/04 00:07:01;;;;;;;2.92;1.70;;;26.80;52.60;;;;;;4962434;28;20205;-72
2022/07/04 00:09:29;;;;;;;2.75;1.50;;;26.80;52.60;;;;;;4960863;28;20202;-72
2022/07/04 00:11:58;;;;;;;4.35;1.65;;;26.80;52.60;;;;;;4963383;28;20217;-72
2022/07/04 00:14:26;;;;;;;2.25;1.30;;;26.70;52.60;;;;;;4958420;28;20212;-74
2022/07/04 00:16:54;;;;;;;1.85;1.20;;;26.70;52.60;;;;;;4960477;28;20198;-74
2022/07/04 00:19:24;;;;;;;3.63;1.50;;;26.70;52.60;;;;;;4963430;28;20201;-74
2022/07/04 00:21:53;;;;;;;5.15;1.90;;;26.70;52.60;;;;;;4963562;28;20655;-74
2022/07/04 00:24:21;;;;;;;2.83;1.88;;;26.70;52.60;;;;;;4952676;28;20205;-74
2022/07/04 00:26:49;;;;;;;6.35;1.63;;;26.70;52.70;;;;;;4958708;28;20229;-74
2022/07/04 00:29:18;;;;;;;6.13;1.60;;;26.70;52.70;;;;;;4960974;28;20651;-74
2022/07/04 00:31:46;;;;;;;3.08;1.92;;;26.70;52.80;;;;;;4960961;28;20209;-74
2022/07/04 00:34:15;;;;;;;7.70;2.40;;;26.60;52.60;;;;;;4957269;28;20226;-74
2022/07/04 00:36:44;;;;;;;4.70;1.83;;;26.60;52.60;;;;;;4954017;28;20194;-74
2022/07/04 00:39:13;;;;;;;3.38;1.40;;;26.60;52.60;;;;;;4963011;28;20210;-74
2022/07/04 00:41:41;;;;;;;2.58;1.65;;;26.60;52.60;;;;;;4962727;28;20201;-74
2022/07/04 00:44:12;;;;;;;3.58;2.10;;;26.60;52.70;;;;;;4955809;28;20198;-74
2022/07/04 00:46:41;;;;;;;4.18;1.85;;;26.60;52.70;;;;;;4961414;28;20202;-74
2022/07/04 00:49:11;;;;;;;5.45;1.60;;;26.60;52.80;;;;;;4959001;28;20301;-74
2022/07/04 00:51:41;;;;;;;4.50;1.90;;;26.60;52.80;;;;;;4961764;28;20229;-74
2022/07/04 00:54:12;;;;;;;3.95;1.88;;;26.60;52.70;;;;;;4960373;28;20725;-74
2022/07/04 00:56:42;;;;;;;5.28;1.90;;;26.60;52.50;;;;;;4965412;28;20730;-74
2022/07/04 00:59:12;;;;;;;4.85;1.63;;;26.60;52.60;;;;;;4959578;28;20696;-74
2022/07/04 01:01:41;;;;;;;6.05;2.25;;;26.60;52.60;;;;;;4959192;28;20561;-74
2022/07/04 01:04:09;;;;;;;2.88;1.80;;;26.60;52.60;;;;;;4956961;28;20229;-74
2022/07/04 01:06:38;;;;;;;2.60;1.67;;;26.60;52.60;;;;;;4953633;28;20245;-74
2022/07/04 01:09:06;;;;;;;4.03;1.70;;;26.70;52.60;;;;;;4961702;28;20652;-74
2022/07/04 01:11:36;;;;;;;5.30;1.90;;;26.70;52.60;;;;;;4961337;28;20215;-74
2022/07/04 01:14:06;;;;;;;3.55;1.65;;;26.60;52.60;;;;;;4963353;28;20200;-74
2022/07/04 01:16:34;;;;;;;4.07;1.52;;;26.60;52.70;;;;;;4957663;28;20224;-74
2022/07/04 01:19:04;;;;;;;5.38;2.17;;;26.60;52.90;;;;;;4964839;28;20205;-74
2022/07/04 01:21:34;;;;;;;2.47;1.67;;;26.60;53.00;;;;;;4963050;28;20201;-74
2022/07/04 01:24:02;;;;;;;3.88;1.77;;;26.60;53.10;;;;;;4966761;28;20221;-74
2022/07/04 01:26:31;;;;;;;3.13;1.70;;;26.60;53.30;;;;;;4957338;28;20213;-74
2022/07/04 01:28:59;;;;;;;2.70;1.90;;;26.50;53.30;;;;;;4960019;28;20568;-74
2022/07/04 01:31:28;;;;;;;6.00;1.92;;;26.50;53.30;;;;;;4955957;28;20198;-74
2022/07/04 01:33:56;;;;;;;3.65;1.75;;;26.50;53.30;;;;;;4964810;28;20205;-74
2022/07/04 01:36:24;;;;;;;7.45;1.85;;;26.50;53.40;;;;;;4958271;28;20684;-74
2022/07/04 01:38:56;;;;;;;5.45;2.42;;;26.50;53.40;;;;;;4957800;28;20200;-74
2022/07/04 01:41:24;;;;;;;2.85;1.70;;;26.40;53.40;;;;;;4961251;28;20223;-74
2022/07/04 01:43:53;;;;;;;3.50;1.60;;;26.40;53.40;;;;;;4961219;28;20213;-75
2022/07/04 01:46:21;;;;;;;2.78;1.67;;;26.40;53.50;;;;;;4959917;28;20220;-74
2022/07/04 01:48:49;;;;;;;2.50;1.60;;;26.40;53.50;;;;;;4958984;28;20202;-74
2022/07/04 01:51:18;;;;;;;5.38;1.70;;;26.40;53.60;;;;;;4958808;28;20230;-74
2022/07/04 01:53:46;;;;;;;4.95;1.90;;;26.40;53.60;;;;;;4963138;28;20201;-74
2022/07/04 01:56:16;;;;;;;3.55;1.95;;;26.30;53.70;;;;;;4957209;28;20198;-74
2022/07/04 01:58:44;;;;;;;3.35;1.67;;;26.30;53.90;;;;;;4964265;28;20214;-74
2022/07/04 02:01:30;;;;;;;4.28;1.98;;;26.30;54.10;;;;;;4962675;28;20204;-74
2022/07/04 02:03:59;;;;;;;6.78;2.13;;;26.30;54.20;;;;;;4961294;28;20206;-74
2022/07/04 02:06:28;;;;;;;4.47;2.13;;;26.20;54.10;;;;;;4954806;28;20261;-74
2022/07/04 02:14:30;;;;;;;6.80;1.85;;;26.10;54.40;;;;;;4963844;28;20251;-74
2022/07/04 02:16:59;;;;;;;4.90;1.90;;;26.10;54.40;;;;;;4961337;28;20222;-74
2022/07/04 02:19:27;;;;;;;4.63;2.13;;;26.10;54.50;;;;;;4965778;28;20209;-74
2022/07/04 02:21:56;;;;;;;3.33;1.98;;;26.10;54.60;;;;;;4959916;28;20201;-75
2022/07/04 02:24:24;;;;;;;5.25;1.70;;;26.10;54.70;;;;;;4963049;28;20204;-74
2022/07/04 02:26:54;;;;;;;3.17;1.88;;;26.10;54.70;;;;;;4961460;28;20217;-74
2022/07/04 02:29:22;;;;;;;2.25;1.40;;;26.10;54.80;;;;;;4961042;28;20194;-74
2022/07/04 02:31:51;;;;;;;3.53;1.42;;;26.10;55.00;;;;;;4960732;28;20193;-74
2022/07/04 02:34:19;;;;;;;6.00;2.05;;;26.00;55.00;;;;;;4959269;28;20198;-74
2022/07/04 02:36:48;;;;;;;3.35;1.65;;;26.00;55.10;;;;;;4961453;28;20221;-74
2022/07/04 02:39:16;;;;;;;3.40;2.03;;;26.00;55.20;;;;;;4959556;28;20210;-74
2022/07/04 02:41:45;;;;;;;5.05;2.38;;;25.90;55.20;;;;;;4962890;28;20206;-75
2022/07/04 02:44:14;;;;;;;3.45;1.75;;;25.90;55.40;;;;;;4957704;28;20663;-74
2022/07/04 02:46:44;;;;;;;4.10;1.92;;;25.90;55.70;;;;;;4961398;28;20209;-74
2022/07/04 02:49:12;;;;;;;8.40;1.92;;;25.90;55.70;;;;;;4958461;28;20198;-74
2022/07/04 02:51:41;;;;;;;4.75;1.80;;;25.80;55.80;;;;;;4912506;28;1301541;-74
2022/07/04 02:54:10;;;;;;;5.70;2.05;;;25.80;56.00;;;;;;4955968;28;20235;-74
2022/07/04 02:56:38;;;;;;;5.03;1.85;;;25.80;56.30;;;;;;4961184;28;20218;-74
2022/07/04 02:59:07;;;;;;;2.88;1.83;;;25.80;56.60;;;;;;4952752;28;20209;-74
2022/07/04 03:01:37;;;;;;;3.05;1.83;;;25.80;56.80;;;;;;4963122;28;20194;-74
2022/07/04 03:04:05;;;;;;;4.03;1.85;;;25.70;57.00;;;;;;4964922;28;20446;-74
2022/07/04 03:06:34;;;;;;;5.15;1.83;;;25.70;57.10;;;;;;4960288;28;20286;-74
2022/07/04 03:09:02;;;;;;;4.63;1.90;;;25.70;57.30;;;;;;4962681;28;20197;-74
2022/07/04 03:11:31;;;;;;;6.90;2.25;;;25.70;57.40;;;;;;4953733;28;20210;-74
2022/07/04 03:13:59;;;;;;;5.47;1.85;;;25.70;57.60;;;;;;4958162;28;20214;-75
2022/07/04 03:16:28;;;;;;;3.35;2.20;;;25.70;57.90;;;;;;4964409;28;20214;-74
2022/07/04 03:18:57;;;;;;;6.22;2.10;;;25.70;57.90;;;;;;4966712;28;20206;-75
2022/07/04 03:21:26;;;;;;;6.68;2.35;;;25.70;58.20;;;;;;4962123;28;20682;-75
2022/07/04 03:24:00;;;;;;;6.57;1.80;;;25.60;58.30;;;;;;4961134;28;20208;-74
2022/07/04 03:26:30;;;;;;;5.95;2.17;;;25.70;58.40;;;;;;4962094;28;20193;-74
2022/07/04 03:28:59;;;;;;;6.88;1.95;;;25.70;58.50;;;;;;4962432;28;20194;-74
2022/07/04 03:31:29;;;;;;;7.15;2.17;;;25.70;58.70;;;;;;4957462;28;20190;-74
2022/07/04 03:33:59;;;;;;;10.25;2.30;;;25.70;58.80;;;;;;4962134;28;20204;-74
2022/07/04 03:36:28;;;;;;;9.75;2.20;;;25.70;59.00;;;;;;4962590;28;20224;-74
2022/07/04 03:38:56;;;;;;;3.63;2.00;;;25.70;59.20;;;;;;4961972;28;20225;-74
2022/07/04 03:41:24;;;;;;;6.10;1.90;;;25.70;60.00;;;;;;4957503;28;20221;-74
2022/07/04 03:43:53;;;;;;;8.07;2.30;;;25.70;59.30;;;;;;4959027;28;20194;-74
2022/07/04 03:46:21;;;;;;;5.22;2.17;;;25.70;59.40;;;;;;4960362;28;20301;-74
2022/07/04 03:48:50;;;;;;;5.75;2.70;;;25.80;59.50;;;;;;4958746;28;20868;-75
2022/07/04 03:51:19;;;;;;;6.40;2.70;;;25.80;59.50;;;;;;4958933;28;20236;-74
2022/07/04 03:53:48;;;;;;;7.13;3.08;;;25.80;59.50;;;;;;4958628;28;20280;-74
2022/07/04 03:56:16;;;;;;;7.82;2.92;;;25.80;59.60;;;;;;4968585;28;20198;-74
2022/07/04 03:58:48;;;;;;;5.88;2.53;;;25.80;59.80;;;;;;4963689;28;20552;-74
2022/07/04 04:01:17;;;;;;;3.10;2.20;;;25.90;59.90;;;;;;4965166;28;20862;-74
2022/07/04 04:06:33;;;;;;;8.05;2.25;;;25.90;60.10;;;;;;4963259;28;20205;-74
2022/07/04 04:09:02;;;;;;;4.80;2.15;;;26.00;60.40;;;;;;4959423;28;20243;-74
2022/07/04 04:11:37;;;;;;;6.22;2.53;;;26.00;60.40;;;;;;4965640;28;20201;-74
2022/07/04 04:14:05;;;;;;;7.43;2.15;;;26.10;60.50;;;;;;4965230;28;20202;-75
2022/07/04 04:16:34;;;;;;;7.40;2.40;;;26.10;60.80;;;;;;4962198;28;20194;-75
2022/07/04 04:19:02;;;;;;;3.63;2.13;;;26.10;61.30;;;;;;4961156;28;20771;-74
2022/07/04 04:21:31;;;;;;;11.85;2.13;;;26.10;61.40;;;;;;4965653;28;20205;-74
2022/07/04 04:24:00;;;;;;;3.75;2.00;;;26.20;62.00;;;;;;4965993;28;20222;-74
2022/07/04 04:26:29;;;;;;;5.38;1.80;;;26.20;60.90;;;;;;4959558;28;20248;-75
2022/07/04 04:28:58;;;;;;;6.95;2.30;;;26.30;60.90;;;;;;4963999;28;20198;-74
2022/07/04 04:31:26;;;;;;;5.28;2.22;;;26.30;60.80;;;;;;4968356;28;20752;-74
2022/07/04 04:33:55;;;;;;;4.97;2.20;;;26.40;60.60;;;;;;4961282;28;20201;-74
2022/07/04 04:36:23;;;;;;;5.38;2.00;;;26.40;60.50;;;;;;4965525;28;20208;-74
2022/07/04 04:38:52;;;;;;;4.45;2.35;;;26.50;60.30;;;;;;4960660;28;20232;-74
2022/07/04 04:41:21;;;;;;;4.05;1.90;;;26.50;59.90;;;;;;4962011;28;20197;-75
2022/07/04 04:43:50;;;;;;;7.20;2.03;;;26.60;59.70;;;;;;4962501;28;20198;-74
2022/07/04 04:46:20;;;;;;;4.63;1.90;;;26.60;59.50;;;;;;4961238;28;21339;-74
2022/07/04 04:48:49;;;;;;;5.43;2.03;;;26.70;59.40;;;;;;4961288;28;20237;-75
2022/07/04 04:51:17;;;;;;;6.30;2.00;;;26.70;59.30;;;;;;4963615;28;20230;-74
2022/07/04 04:53:46;;;;;;;5.40;2.38;;;26.80;59.10;;;;;;4960496;28;20200;-75
2022/07/04 04:56:14;;;;;;;3.15;1.88;;;26.80;58.90;;;;;;4960235;28;20204;-75
2022/07/04 04:58:44;;;;;;;3.38;1.80;;;26.90;58.40;;;;;;4964245;28;20233;-75
2022/07/04 05:01:12;;;;;;;2.78;1.52;;;26.90;57.80;;;;;;4957105;28;20208;-75
2022/07/04 05:04:00;;;;;;;4.68;1.95;;;27.00;57.50;;;;;;4964097;28;20260;-75
2022/07/04 05:06:29;;;;;;;3.22;1.77;;;27.10;57.40;;;;;;4961607;28;20253;-74
2022/07/04 05:08:57;;;;;;;2.90;1.70;;;27.10;56.70;;;;;;4961594;28;20194;-74
2022/07/04 05:11:26;;;;;;;4.13;1.50;;;27.10;56.20;;;;;;4965863;28;20721;-75
2022/07/04 05:13:56;;;;;;;3.38;1.88;;;27.10;56.00;;;;;;4965563;28;20194;-75
2022/07/04 05:16:24;;;;;;;6.38;2.03;;;27.20;56.00;;;;;;4957485;28;20210;-75
2022/07/04 05:18:52;;;;;;;5.07;1.90;;;27.30;55.90;;;;;;4961341;28;20705;-74
2022/07/04 05:21:21;;;;;;;3.42;1.70;;;27.30;55.50;;;;;;4963667;28;20202;-75
2022/07/04 05:23:49;;;;;;;3.85;1.70;;;27.40;55.40;;;;;;4962484;28;20194;-75
2022/07/04 05:26:18;;;;;;;3.83;1.70;;;27.40;55.20;;;;;;4964284;28;20197;-75
2022/07/04 05:28:46;;;;;;;5.45;1.50;;;27.40;55.00;;;;;;4963250;28;20205;-75
2022/07/04 05:31:16;;;;;;;6.85;1.70;;;27.50;55.00;;;;;;4963320;28;20200;-75
2022/07/04 05:33:44;;;;;;;4.22;1.63;;;27.50;54.90;;;;;;4963973;28;20225;-75
2022/07/04 05:36:13;;;;;;;3.60;1.70;;;27.60;54.80;;;;;;4965602;28;20460;-75
2022/07/04 05:38:42;;;;;;;5.63;1.83;;;27.60;54.50;;;;;;4960050;28;20226;-76
2022/07/04 05:41:10;;;;;;;5.65;1.90;;;27.60;54.50;;;;;;4965061;28;20874;-75
2022/07/04 05:43:38;;;;;;;4.22;1.70;;;27.70;54.40;;;;;;4967382;28;20845;-75
2022/07/04 05:46:07;;;;;;;5.75;2.28;;;27.70;54.30;;;;;;4962543;28;20201;-75
2022/07/04 05:48:37;;;;;;;4.18;1.70;;;27.80;54.20;;;;;;4964008;28;20223;-75
2022/07/04 05:51:06;;;;;;;7.22;2.30;;;27.80;54.20;;;;;;4963451;28;20229;-75
2022/07/04 05:53:34;;;;;;;5.07;1.67;;;27.90;54.30;;;;;;4964754;28;20197;-76
2022/07/04 05:56:03;;;;;;;7.80;1.67;;;27.90;54.40;;;;;;4959719;28;20206;-77
2022/07/04 05:58:31;;;;;;;4.07;2.00;;;28.00;54.50;;;;;;4961180;28;20879;-75
2022/07/04 06:01:00;;;;;;;4.93;1.60;;;28.10;54.40;;;;;;4961514;28;20198;-74
2022/07/04 06:03:28;;;;;;;5.43;2.10;;;28.10;54.20;;;;;;4963446;28;20321;-76
2022/07/04 06:05:58;;;;;;;13.70;2.45;;;28.20;54.10;;;;;;4968387;28;20209;-76
2022/07/04 06:08:27;;;;;;;5.53;1.80;;;28.20;54.00;;;;;;4970154;28;20208;-76
2022/07/04 06:10:55;;;;;;;3.42;1.38;;;28.30;54.00;;;;;;4968699;28;21477;-78
2022/07/04 06:13:24;;;;;;;3.10;1.40;;;28.30;53.80;;;;;;4963311;28;20205;-76
2022/07/04 06:15:52;;;;;;;7.38;1.45;;;28.40;53.40;;;;;;4966610;28;20397;-76
2022/07/04 06:18:20;;;;;;;7.80;1.55;;;28.40;52.50;;;;;;4968333;28;20228;-75
2022/07/04 06:20:49;;;;;;;4.05;1.55;;;28.40;51.70;;;;;;4966709;28;20571;-75
2022/07/04 06:23:19;;;;;;;6.07;1.30;;;28.40;50.70;;;;;;4967402;28;20205;-76
2022/07/04 06:25:47;;;;;;;10.38;1.48;;;28.50;50.00;;;;;;4967938;28;20197;-75
2022/07/04 06:28:17;;;;;;;5.43;1.45;;;28.50;49.50;;;;;;4966329;28;20200;-76
2022/07/04 06:31:05;;;;;;;11.25;1.58;;;28.50;49.30;;;;;;4966090;28;20256;-75
2022/07/04 06:35:44;;;;;;;5.40;1.40;;;28.60;48.90;;;;;;4968144;28;20207;-75
2022/07/04 06:36:21;;;;;;;10.02;1.50;;;28.60;48.60;;;;;;4967466;28;20219;-75
2022/07/04 06:38:51;;;;;;;8.40;1.30;;;28.60;48.80;;;;;;4968559;28;20706;-75
2022/07/04 06:41:19;;;;;;;3.17;1.40;;;28.70;48.80;;;;;;4967130;28;20209;-75
2022/07/04 06:43:48;;;;;;;5.13;1.67;;;28.70;48.10;;;;;;4969676;28;20225;-75
2022/07/04 06:46:16;;;;;;;3.10;1.20;;;28.70;48.00;;;;;;4968486;28;20200;-75
2022/07/04 06:48:44;;;;;;;5.78;1.52;;;28.70;47.60;;;;;;4967943;28;20198;-76
2022/07/04 06:51:13;;;;;;;9.38;1.52;;;28.80;47.80;;;;;;4972079;28;20588;-76
2022/07/04 06:53:42;;;;;;;3.22;1.60;;;28.80;46.70;;;;;;4967671;28;20614;-75
2022/07/04 06:56:12;;;;;;;7.07;1.60;;;28.90;46.20;;;;;;4967975;28;20201;-75
2022/07/04 06:58:41;;;;;;;9.55;2.05;;;28.90;46.40;;;;;;4961938;28;20201;-75
2022/07/04 07:01:09;;;;;;;8.57;2.22;;;28.90;46.70;;;;;;4964336;28;20204;-76
2022/07/04 07:03:37;;;;;;;5.47;1.92;;;29.00;47.20;;;;;;4966199;28;20206;-77
2022/07/04 07:06:06;;;;;;;10.35;1.98;;;29.00;47.20;;;;;;4966415;28;20206;-76
2022/07/04 07:08:34;;;;;;;8.55;1.70;;;29.00;47.40;;;;;;4967436;28;20202;-76
2022/07/04 07:11:12;;;;;;;8.18;1.60;;;29.20;47.30;;;;;;4967418;28;20229;-77
2022/07/04 07:13:45;;;;;;;4.68;1.50;;;29.10;47.00;;;;;;4965555;28;20194;-76
2022/07/04 07:16:14;;;;;;;8.50;2.53;;;29.20;46.80;;;;;;4968906;28;20210;-76
2022/07/04 07:18:42;;;;;;;6.80;1.63;;;29.20;47.10;;;;;;4966716;28;20656;-75
2022/07/04 07:21:11;;;;;;;9.38;2.00;;;29.20;47.50;;;;;;4968011;28;20206;-76
2022/07/04 07:23:40;;;;;;;9.60;1.90;;;29.30;47.30;;;;;;4966337;28;20221;-72
2022/07/04 07:26:09;;;;;;;3.95;1.67;;;29.30;47.10;;;;;;4964249;28;20201;-75
2022/07/04 07:28:38;;;;;;;9.60;1.90;;;29.30;47.00;;;;;;4967331;28;20198;-76
2022/07/04 07:31:07;;;;;;;4.88;1.95;;;29.40;46.80;;;;;;4969797;28;20197;-75
2022/07/04 07:33:36;;;;;;;4.82;1.77;;;29.40;46.20;;;;;;4965137;28;20598;-75
2022/07/04 07:36:05;;;;;;;8.85;2.08;;;29.50;46.50;;;;;;4967180;28;20293;-75
2022/07/04 07:38:35;;;;;;;5.03;1.90;;;29.50;46.70;;;;;;4966134;28;20847;-75
2022/07/04 07:41:03;;;;;;;5.15;1.58;;;29.60;46.10;;;;;;4965435;28;20212;-75
2022/07/04 07:43:31;;;;;;;4.65;1.98;;;29.70;45.80;;;;;;4965597;28;20190;-76
2022/07/04 07:46:00;;;;;;;5.53;2.08;;;29.70;45.90;;;;;;4970588;28;20205;-76
2022/07/04 07:48:30;;;;;;;5.53;1.80;;;29.80;45.70;;;;;;4964186;28;20198;-74
2022/07/04 07:50:58;;;;;;;10.20;1.88;;;29.80;45.80;;;;;;4963020;28;20268;-74
2022/07/04 07:53:27;;;;;;;5.38;1.98;;;29.90;46.20;;;;;;4965243;28;20235;-75
2022/07/04 07:55:55;;;;;;;5.30;1.70;;;29.90;46.70;;;;;;4965313;28;20205;-76
2022/07/04 07:58:23;;;;;;;5.35;2.08;;;30.00;46.90;;;;;;4966172;28;20204;-75
2022/07/04 08:00:54;;;;;;;7.78;2.22;;;30.00;46.30;;;;;;4963289;28;20222;-74
2022/07/04 08:06:12;;;;;;;5.50;2.30;;;30.10;46.70;;;;;;4961168;28;20208;-76
2022/07/04 08:08:41;;;;;;;7.78;2.13;;;30.20;46.80;;;;;;4960732;28;20190;-76
2022/07/04 08:11:10;;;;;;;8.30;2.50;;;30.30;46.90;;;;;;4959235;28;20880;-76
2022/07/04 08:13:39;;;;;;;7.32;2.20;;;30.30;46.70;;;;;;4962433;28;20201;-75
2022/07/04 08:16:08;;;;;;;13.65;2.55;;;30.30;46.70;;;;;;4963561;28;20205;-75
2022/07/04 08:18:37;;;;;;;3.22;1.73;;;30.40;46.50;;;;;;4966468;28;20194;-73
2022/07/04 08:21:06;;;;;;;10.98;3.10;;;30.40;46.50;;;;;;4962906;28;20190;-76
2022/07/04 08:23:41;;;;;;;6.72;2.10;;;30.40;46.30;;;;;;4966009;28;20254;-77
2022/07/04 08:26:30;;;;;;;7.30;2.08;;;30.50;46.70;;;;;;4958768;28;20205;-72
2022/07/04 08:28:59;;;;;;;12.65;2.17;;;30.50;46.40;;;;;;4963777;28;20201;-74
2022/07/04 08:31:28;;;;;;;3.65;2.05;;;30.60;46.80;;;;;;4960711;28;20205;-75
2022/07/04 08:34:16;;;;;;;5.47;2.10;;;30.70;47.10;;;;;;4964220;28;20652;-75
2022/07/04 08:36:45;;;;;;;10.48;2.00;;;30.80;47.50;;;;;;4962240;28;20568;-76
2022/07/04 08:39:15;;;;;;;6.85;2.25;;;30.80;47.30;;;;;;4957047;28;20807;-75
2022/07/04 08:41:43;;;;;;;4.22;1.73;;;30.90;47.00;;;;;;4963276;28;20206;-76
2022/07/04 08:44:12;;;;;;;9.98;2.58;;;31.00;47.00;;;;;;4962180;28;20209;-76
2022/07/04 08:46:41;;;;;;;2.67;1.58;;;31.10;46.60;;;;;;4959978;28;20849;-75
2022/07/04 08:49:18;;;;;;;5.88;2.03;;;31.10;46.50;;;;;;4962403;28;20202;-76
2022/07/04 08:51:54;;;;;;;4.97;2.33;;;31.20;46.80;;;;;;4961039;28;20233;-76
2022/07/04 09:00:09;;;;;;;5.68;2.30;;;31.40;47.00;;;;;;4947834;28;20232;-76
2022/07/04 09:02:38;;;;;;;5.03;2.20;;;31.50;47.30;;;;;;4963602;28;20189;-76
2022/07/04 09:05:09;;;;;;;6.05;2.20;;;31.60;47.20;;;;;;4963855;28;20600;-76
2022/07/04 09:07:38;;;;;;;3.15;1.90;;;31.70;47.40;;;;;;4962114;28;20197;-76
2022/07/04 09:10:09;;;;;;;4.07;2.00;;;31.70;47.50;;;;;;4960853;28;20201;-75
2022/07/04 09:12:37;;;;;;;5.68;2.05;;;31.80;47.60;;;;;;4961266;28;20190;-75
2022/07/04 09:15:27;;;;;;;3.40;2.10;;;31.90;47.10;;;;;;4958761;28;20193;-76
2022/07/04 09:17:56;;;;;;;4.22;2.47;;;32.00;47.30;;;;;;4959541;28;20209;-75
2022/07/04 09:20:33;;;;;;;7.72;2.10;;;32.00;47.10;;;;;;4951625;28;20758;-77
2022/07/04 09:23:01;;;;;;;4.40;2.35;;;32.10;47.10;;;;;;4966016;28;20297;-75
2022/07/04 09:25:31;;;;;;;6.00;2.28;;;32.20;47.30;;;;;;4971795;28;20197;-75
2022/07/04 09:28:03;;;;;;;6.55;2.33;;;32.20;46.90;;;;;;4962610;28;20284;-76
2022/07/04 09:30:31;;;;;;;5.53;2.75;;;32.30;46.70;;;;;;4960664;28;20182;-77
2022/07/04 09:33:00;;;;;;;6.50;2.00;;;32.30;46.20;;;;;;4965088;28;20213;-76
2022/07/04 09:35:31;;;;;;;4.90;2.17;;;32.30;46.30;;;;;;4964784;28;20212;-77
2022/07/04 09:38:01;;;;;;;5.53;2.47;;;32.40;46.60;;;;;;4959198;28;20238;-77
2022/07/04 09:40:33;;;;;;;6.32;2.58;;;32.50;46.80;;;;;;4966027;28;20221;-76
2022/07/04 09:43:11;;;;;;;7.07;2.15;;;32.50;46.40;;;;;;4960595;28;20209;-76
2022/07/04 09:45:54;;;;;;;7.35;2.47;;;32.60;46.50;;;;;;4969269;28;20201;-76
2022/07/04 09:48:23;;;;;;;6.00;2.35;;;32.70;46.50;;;;;;4966927;28;20852;-77
2022/07/04 09:50:52;;;;;;;6.30;2.40;;;32.70;46.60;;;;;;4967082;28;21000;-76
2022/07/04 09:53:28;;;;;;;10.27;2.53;;;32.80;46.90;;;;;;4967062;28;20245;-76
2022/07/04 09:55:58;;;;;;;6.18;2.33;;;32.90;47.10;;;;;;4961220;28;20204;-76
2022/07/04 09:58:26;;;;;;;7.38;2.45;;;33.00;47.10;;;;;;4972620;28;20198;-76
2022/07/04 10:01:01;;;;;;;3.28;2.20;;;33.10;46.60;;;;;;4971796;28;20228;-78
2022/07/04 10:03:32;;;;;;;13.45;2.45;;;33.10;46.30;;;;;;4972325;28;20201;-76
2022/07/04 10:06:06;;;;;;;4.95;2.30;;;33.20;46.10;;;;;;4966642;28;20197;-77
2022/07/04 10:08:34;;;;;;;9.57;2.42;;;33.30;45.70;;;;;;4963701;28;20194;-77
2022/07/04 10:11:05;;;;;;;4.07;2.20;;;33.30;45.40;;;;;;4965557;28;20205;-76
2022/07/04 10:13:37;;;;;;;9.73;2.47;;;33.40;45.50;;;;;;4969047;28;20647;-77
2022/07/04 10:16:07;;;;;;;3.47;2.22;;;33.30;45.40;;;;;;4970685;28;20213;-77
2022/07/04 10:18:36;;;;;;;4.68;2.10;;;33.40;45.30;;;;;;4969586;28;20197;-77
2022/07/04 10:21:04;;;;;;;3.75;2.35;;;33.40;45.30;;;;;;4967162;28;20221;-76
2022/07/04 10:23:35;;;;;;;5.93;2.40;;;33.50;45.70;;;;;;4964370;28;20665;-77
2022/07/04 10:26:06;;;;;;;5.00;1.92;;;33.60;45.90;;;;;;4965871;28;20215;-76
2022/07/04 10:28:34;;;;;;;5.15;2.67;;;33.60;46.00;;;;;;4968433;28;20763;-76
2022/07/04 10:31:03;;;;;;;4.78;2.45;;;33.70;46.10;;;;;;4966616;28;20193;-77
2022/07/04 10:33:32;;;;;;;4.07;2.58;;;33.60;45.90;;;;;;4959290;28;20197;-77
2022/07/04 10:36:02;;;;;;;8.13;2.90;;;33.70;46.10;;;;;;4962351;28;20225;-77
2022/07/04 10:38:34;;;;;;;9.10;2.63;;;33.80;45.90;;;;;;4963655;28;20209;-78
2022/07/04 10:41:06;;;;;;;8.75;2.97;;;33.90;46.10;;;;;;4960403;28;20220;-79
2022/07/04 10:43:52;;;;;;;9.75;2.72;;;33.90;46.50;;;;;;4968238;28;20685;-77
2022/07/04 10:46:31;;;;;;;5.15;2.67;;;34.00;45.70;;;;;;4966360;28;20202;-76
2022/07/04 10:49:02;;;;;;;7.55;2.63;;;34.00;45.70;;;;;;4959181;28;20209;-78
2022/07/04 10:51:42;;;;;;;4.85;2.50;;;34.10;45.60;;;;;;4969121;28;20230;-80
2022/07/04 10:54:14;;;;;;;8.13;2.92;;;34.10;45.40;;;;;;4968063;28;20864;-78
2022/07/04 10:56:46;;;;;;;13.10;2.65;;;34.20;45.60;;;;;;4965853;28;20189;-75
2022/07/04 10:59:18;;;;;;;4.18;2.70;;;34.30;45.70;;;;;;4962330;28;20252;-77
2022/07/04 11:02:02;;;;;;;4.50;2.75;;;34.30;45.80;;;;;;4967892;28;20210;-75
2022/07/04 11:04:53;;;;;;;5.00;2.85;;;34.40;45.20;;;;;;4963026;28;20216;-78
2022/07/04 11:07:24;;;;;;;6.47;3.03;;;34.40;45.00;;;;;;4963228;28;20194;-79
2022/07/04 11:10:25;;;;;;;5.65;2.80;;;34.40;45.10;;;;;;4964706;28;20202;-78
2022/07/04 11:13:28;;;;;;;4.57;2.70;;;34.50;44.90;;;;;;4969351;28;20678;-77
2022/07/04 11:16:05;;;;;;;3.97;2.80;;;34.60;44.80;;;;;;4966297;28;20202;-78
2022/07/04 11:18:44;;;;;;;6.97;2.85;;;34.60;45.20;;;;;;4958379;28;20288;-80
2022/07/04 11:21:24;;;;;;;4.65;2.38;;;34.70;44.70;;;;;;4955121;28;20210;-76
2022/07/04 11:23:54;;;;;;;5.22;3.05;;;34.80;44.40;;;;;;4964561;28;20193;-77
2022/07/04 11:26:23;;;;;;;4.95;2.92;;;34.90;44.60;;;;;;4963800;28;20202;-76
2022/07/04 11:28:54;;;;;;;5.15;3.30;;;34.90;44.70;;;;;;4961501;28;20288;-77
2022/07/04 11:31:36;;;;;;;9.10;2.97;;;34.90;44.60;;;;;;4958732;28;20189;-76
2022/07/04 11:34:05;;;;;;;6.28;3.22;;;34.90;44.80;;;;;;4964605;28;20198;-75
2022/07/04 11:36:35;;;;;;;7.30;3.00;;;34.90;44.80;;;;;;4971279;28;20193;-77
2022/07/04 11:39:05;;;;;;;12.63;3.45;;;35.00;45.00;;;;;;4970990;28;20205;-76
2022/07/04 11:47:13;;;;;;;6.10;3.38;;;35.10;45.00;;;;;;4963838;28;20197;-77
2022/07/04 11:49:47;;;;;;;8.02;3.42;;;35.10;45.00;;;;;;4962805;28;20198;-79
2022/07/04 11:52:17;;;;;;;5.70;2.83;;;35.20;44.40;;;;;;4963119;28;20189;-76
2022/07/04 11:55:04;;;;;;;6.15;3.38;;;35.20;44.40;;;;;;4960242;28;20199;-78
2022/07/04 11:57:36;;;;;;;10.98;3.30;;;35.20;43.90;;;;;;4964879;28;20198;-75
2022/07/04 12:00:09;;;;;;;7.03;3.30;;;35.30;44.20;;;;;;4963700;28;20284;-76
2022/07/04 12:02:44;;;;;;;6.55;3.47;;;35.30;44.30;;;;;;4965723;28;20209;-76
2022/07/04 12:05:14;;;;;;;5.38;2.65;;;35.30;44.40;;;;;;4959236;28;20190;-76
2022/07/04 12:07:44;;;;;;;5.22;2.97;;;35.40;44.20;;;;;;4959007;28;20205;-77
2022/07/04 12:10:32;;;;;;;5.57;2.70;;;35.40;44.40;;;;;;4956357;28;20507;-78
2022/07/04 12:13:06;;;;;;;6.32;3.00;;;35.40;44.60;;;;;;4961582;28;20194;-78
2022/07/04 12:15:39;;;;;;;5.35;2.83;;;35.30;44.70;;;;;;4957614;28;20190;-77
2022/07/04 12:18:17;;;;;;;7.30;3.20;;;35.30;43.90;;;;;;4957978;28;20232;-77
2022/07/04 12:20:46;;;;;;;5.57;2.92;;;35.20;43.90;;;;;;4959986;28;20193;-76
2022/07/04 12:23:14;;;;;;;8.65;2.80;;;35.20;44.30;;;;;;4964366;28;20197;-77
2022/07/04 12:25:46;;;;;;;5.22;2.45;;;35.30;44.70;;;;;;4963053;28;20293;-77
2022/07/04 12:28:16;;;;;;;5.72;3.15;;;35.20;44.60;;;;;;4957823;28;20285;-79
2022/07/04 12:30:53;;;;;;;3.40;2.50;;;35.30;44.80;;;;;;4961434;28;20202;-76
2022/07/04 12:33:23;;;;;;;5.90;3.08;;;35.30;44.90;;;;;;4957811;28;20198;-80
2022/07/04 12:35:53;;;;;;;5.47;3.00;;;35.30;44.80;;;;;;4965070;28;20196;-76
2022/07/04 12:38:34;;;;;;;5.22;3.05;;;35.30;44.60;;;;;;4960550;28;20195;-78
2022/07/04 12:41:03;;;;;;;6.88;3.03;;;35.30;44.30;;;;;;4964301;28;20208;-76
2022/07/04 12:43:46;;;;;;;8.35;2.67;;;35.30;44.20;;;;;;4961846;28;20206;-76
2022/07/04 12:46:27;;;;;;;7.68;3.05;;;35.30;44.40;;;;;;4961799;28;20751;-77
2022/07/04 12:48:57;;;;;;;3.70;2.92;;;35.50;44.40;;;;;;4961880;28;20197;-76
2022/07/04 12:51:27;;;;;;;3.38;2.60;;;35.60;44.50;;;;;;4962516;28;20225;-77
2022/07/04 12:53:57;;;;;;;3.95;2.60;;;35.70;44.50;;;;;;4966798;28;20197;-76
2022/07/04 12:56:31;;;;;;;5.95;3.20;;;35.80;44.50;;;;;;4956904;28;20206;-75
2022/07/04 12:59:00;;;;;;;3.85;3.00;;;35.70;44.50;;;;;;4958267;28;20277;-75
2022/07/04 13:01:30;;;;;;;7.40;3.28;;;35.70;44.70;;;;;;4964027;28;20229;-77
2022/07/04 13:04:00;;;;;;;7.28;3.47;;;35.70;45.00;;;;;;4961248;28;20208;-77
2022/07/04 13:06:29;;;;;;;6.15;3.25;;;35.80;44.80;;;;;;4964703;28;20212;-77
2022/07/04 13:08:58;;;;;;;6.22;3.35;;;35.90;44.90;;;;;;4965900;28;20202;-77
2022/07/04 13:14:13;;;;;;;8.82;3.60;;;36.10;45.00;;;;;;4965069;28;20208;-77
2022/07/04 13:16:42;;;;;;;4.75;3.42;;;36.20;45.00;;;;;;4965617;28;20208;-77
2022/07/04 13:19:11;;;;;;;6.03;3.13;;;36.40;45.00;;;;;;4963648;28;20199;-77
2022/07/04 13:21:39;;;;;;;13.73;3.63;;;36.70;44.80;;;;;;4965963;28;20216;-77
2022/07/04 13:24:08;;;;;;;6.50;2.67;;;36.80;44.60;;;;;;4970486;28;20233;-78
2022/07/04 13:26:37;;;;;;;4.70;3.08;;;37.10;44.20;;;;;;4971680;28;20201;-77
2022/07/04 13:29:06;;;;;;;7.88;3.15;;;37.20;43.20;;;;;;4971983;28;20691;-78